sensor_id;sensor_type;location;lat;lon;timestamp;P1;durP1;ratioP1;P2;durP2;ratioP2
19219;SDS011;9744;49.364;7.484;2022-11-15T00:01:42;19.75;;;10.27;;
19219;SDS011;9744;49.364;7.484;2022-11-15T00:04:29;18.38;;;10.38;;
19219;SDS011;9744;49.364;7.484;2022-11-15T00:07:15;18.67;;;10.73;;
19219;SDS011;9744;49.364;7.484;2022-11-15T00:10:01;20.77;;;10.52;;
19219;SDS011;9744;49.364;7.484;2022-11-15T00:12:46;17.13;;;11.20;;
19219;SDS011;9744;49.364;7.484;2022-11-15T00:15:34;22.90;;;11.02;;
19219;SDS011;9744;49.364;7.484;2022-11-15T00:18:21;19.80;;;11.45;;
19219;SDS011;9744;49.364;7.484;2022-11-15T00:21:10;19.95;;;11.18;;
19219;SDS011;9744;49.364;7.484;2022-11-15T00:23:58;16.63;;;11.38;;
19219;SDS011;9744;49.364;7.484;2022-11-15T00:26:43;22.63;;;10.95;;
19219;SDS011;9744;49.364;7.484;2022-11-15T00:29:29;21.40;;;11.05;;
19219;SDS011;9744;49.364;7.484;2022-11-15T00:32:15;20.10;;;10.40;;
19219;SDS011;9744;49.364;7.484;2022-11-15T00:35:00;19.90;;;10.48;;
19219;SDS011;9744;49.364;7.484;2022-11-15T00:37:47;16.02;;;10.50;;
19219;SDS011;9744;49.364;7.484;2022-11-15T00:40:33;20.25;;;10.65;;
19219;SDS011;9744;49.364;7.484;2022-11-15T00:43:18;14.15;;;10.27;;
19219;SDS011;9744;49.364;7.484;2022-11-15T00:46:04;21.55;;;10.85;;
19219;SDS011;9744;49.364;7.484;2022-11-15T00:48:51;15.07;;;9.70;;
19219;SDS011;9744;49.364;7.484;2022-11-15T00:51:38;14.82;;;9.77;;
19219;SDS011;9744;49.364;7.484;2022-11-15T00:54:25;17.15;;;9.48;;
19219;SDS011;9744;49.364;7.484;2022-11-15T00:57:11;13.57;;;9.90;;
19219;SDS011;9744;49.364;7.484;2022-11-15T00:59:56;13.35;;;8.52;;
19219;SDS011;9744;49.364;7.484;2022-11-15T01:02:42;13.77;;;9.10;;
19219;SDS011;9744;49.364;7.484;2022-11-15T01:05:28;18.85;;;9.13;;
19219;SDS011;9744;49.364;7.484;2022-11-15T01:08:14;17.83;;;9.82;;
19219;SDS011;9744;49.364;7.484;2022-11-15T01:11:02;11.70;;;8.65;;
19219;SDS011;9744;49.364;7.484;2022-11-15T01:13:49;13.35;;;8.43;;
19219;SDS011;9744;49.364;7.484;2022-11-15T01:16:34;15.18;;;8.77;;
19219;SDS011;9744;49.364;7.484;2022-11-15T01:19:20;13.73;;;8.10;;
19219;SDS011;9744;49.364;7.484;2022-11-15T01:22:06;16.52;;;8.50;;
19219;SDS011;9744;49.364;7.484;2022-11-15T01:24:52;16.58;;;8.05;;
19219;SDS011;9744;49.364;7.484;2022-11-15T01:27:39;12.70;;;7.68;;
19219;SDS011;9744;49.364;7.484;2022-11-15T01:30:24;12.90;;;7.90;;
19219;SDS011;9744;49.364;7.484;2022-11-15T01:33:10;12.13;;;7.32;;
19219;SDS011;9744;49.364;7.484;2022-11-15T01:35:55;11.48;;;7.05;;
19219;SDS011;9744;49.364;7.484;2022-11-15T01:38:41;14.07;;;7.10;;
19219;SDS011;9744;49.364;7.484;2022-11-15T01:41:28;12.13;;;7.50;;
19219;SDS011;9744;49.364;7.484;2022-11-15T01:47:25;11.82;;;7.28;;
19219;SDS011;9744;49.364;7.484;2022-11-15T01:50:14;14.68;;;7.93;;
19219;SDS011;9744;49.364;7.484;2022-11-15T01:53:03;13.02;;;7.70;;
19219;SDS011;9744;49.364;7.484;2022-11-15T01:55:49;14.05;;;7.35;;
19219;SDS011;9744;49.364;7.484;2022-11-15T01:58:35;13.60;;;7.63;;
19219;SDS011;9744;49.364;7.484;2022-11-15T02:01:23;16.20;;;7.88;;
19219;SDS011;9744;49.364;7.484;2022-11-15T02:04:11;13.93;;;7.60;;
19219;SDS011;9744;49.364;7.484;2022-11-15T02:07:00;12.65;;;7.50;;
19219;SDS011;9744;49.364;7.484;2022-11-15T02:09:48;12.23;;;7.65;;
19219;SDS011;9744;49.364;7.484;2022-11-15T02:12:35;14.80;;;8.13;;
19219;SDS011;9744;49.364;7.484;2022-11-15T02:15:21;14.15;;;8.00;;
19219;SDS011;9744;49.364;7.484;2022-11-15T02:18:15;12.82;;;7.82;;
19219;SDS011;9744;49.364;7.484;2022-11-15T02:21:10;14.15;;;8.55;;
19219;SDS011;9744;49.364;7.484;2022-11-15T02:24:25;12.80;;;8.10;;
19219;SDS011;9744;49.364;7.484;2022-11-15T02:27:39;16.50;;;8.52;;
19219;SDS011;9744;49.364;7.484;2022-11-15T02:30:41;11.88;;;8.70;;
19219;SDS011;9744;49.364;7.484;2022-11-15T02:33:32;17.75;;;8.70;;
19219;SDS011;9744;49.364;7.484;2022-11-15T02:36:24;12.48;;;9.10;;
19219;SDS011;9744;49.364;7.484;2022-11-15T02:39:17;13.00;;;8.38;;
19219;SDS011;9744;49.364;7.484;2022-11-15T02:42:09;16.15;;;8.52;;
19219;SDS011;9744;49.364;7.484;2022-11-15T02:45:14;16.83;;;8.20;;
19219;SDS011;9744;49.364;7.484;2022-11-15T02:48:05;13.75;;;8.38;;
19219;SDS011;9744;49.364;7.484;2022-11-15T02:50:53;22.80;;;9.10;;
19219;SDS011;9744;49.364;7.484;2022-11-15T02:53:39;16.08;;;9.02;;
19219;SDS011;9744;49.364;7.484;2022-11-15T02:56:24;17.67;;;9.30;;
19219;SDS011;9744;49.364;7.484;2022-11-15T02:59:13;12.48;;;9.05;;
19219;SDS011;9744;49.364;7.484;2022-11-15T03:02:13;14.77;;;8.95;;
19219;SDS011;9744;49.364;7.484;2022-11-15T03:05:12;15.55;;;9.45;;
19219;SDS011;9744;49.364;7.484;2022-11-15T03:08:05;14.48;;;9.32;;
19219;SDS011;9744;49.364;7.484;2022-11-15T03:10:56;13.52;;;9.07;;
19219;SDS011;9744;49.364;7.484;2022-11-15T03:13:49;13.75;;;9.68;;
19219;SDS011;9744;49.364;7.484;2022-11-15T03:16:41;12.40;;;8.35;;
19219;SDS011;9744;49.364;7.484;2022-11-15T03:19:35;18.63;;;9.25;;
19219;SDS011;9744;49.364;7.484;2022-11-15T03:22:27;13.52;;;9.80;;
19219;SDS011;9744;49.364;7.484;2022-11-15T03:25:17;14.32;;;8.93;;
19219;SDS011;9744;49.364;7.484;2022-11-15T03:28:05;12.88;;;8.32;;
19219;SDS011;9744;49.364;7.484;2022-11-15T03:30:53;12.35;;;9.07;;
19219;SDS011;9744;49.364;7.484;2022-11-15T03:33:41;18.67;;;9.27;;
19219;SDS011;9744;49.364;7.484;2022-11-15T03:36:28;12.85;;;8.75;;
19219;SDS011;9744;49.364;7.484;2022-11-15T03:39:18;15.15;;;8.10;;
19219;SDS011;9744;49.364;7.484;2022-11-15T03:42:07;16.70;;;9.43;;
19219;SDS011;9744;49.364;7.484;2022-11-15T03:45:02;13.27;;;7.93;;
19219;SDS011;9744;49.364;7.484;2022-11-15T03:47:53;15.07;;;8.50;;
19219;SDS011;9744;49.364;7.484;2022-11-15T03:50:44;13.10;;;8.52;;
19219;SDS011;9744;49.364;7.484;2022-11-15T03:53:30;14.57;;;8.48;;
19219;SDS011;9744;49.364;7.484;2022-11-15T03:56:18;13.55;;;8.93;;
19219;SDS011;9744;49.364;7.484;2022-11-15T03:59:03;13.55;;;8.45;;
19219;SDS011;9744;49.364;7.484;2022-11-15T04:01:49;12.43;;;7.88;;
19219;SDS011;9744;49.364;7.484;2022-11-15T04:04:35;13.18;;;8.32;;
19219;SDS011;9744;49.364;7.484;2022-11-15T04:07:21;13.43;;;8.45;;
19219;SDS011;9744;49.364;7.484;2022-11-15T04:10:07;11.00;;;8.18;;
19219;SDS011;9744;49.364;7.484;2022-11-15T04:12:56;13.70;;;8.95;;
19219;SDS011;9744;49.364;7.484;2022-11-15T04:15:41;15.95;;;9.13;;
19219;SDS011;9744;49.364;7.484;2022-11-15T04:18:27;14.63;;;8.35;;
19219;SDS011;9744;49.364;7.484;2022-11-15T04:21:13;12.85;;;7.82;;
19219;SDS011;9744;49.364;7.484;2022-11-15T04:24:18;13.35;;;8.07;;
19219;SDS011;9744;49.364;7.484;2022-11-15T04:27:03;12.82;;;8.52;;
19219;SDS011;9744;49.364;7.484;2022-11-15T04:29:51;15.38;;;8.48;;
19219;SDS011;9744;49.364;7.484;2022-11-15T04:32:36;11.95;;;8.13;;
19219;SDS011;9744;49.364;7.484;2022-11-15T04:35:22;10.95;;;7.72;;
19219;SDS011;9744;49.364;7.484;2022-11-15T04:38:09;12.43;;;7.30;;
19219;SDS011;9744;49.364;7.484;2022-11-15T04:40:56;11.85;;;8.35;;
19219;SDS011;9744;49.364;7.484;2022-11-15T04:43:41;15.50;;;8.30;;
19219;SDS011;9744;49.364;7.484;2022-11-15T04:46:29;16.08;;;8.65;;
19219;SDS011;9744;49.364;7.484;2022-11-15T04:49:14;11.32;;;8.05;;
19219;SDS011;9744;49.364;7.484;2022-11-15T04:52:00;13.52;;;9.23;;
19219;SDS011;9744;49.364;7.484;2022-11-15T04:54:46;15.30;;;8.90;;
19219;SDS011;9744;49.364;7.484;2022-11-15T04:57:31;13.52;;;8.32;;
19219;SDS011;9744;49.364;7.484;2022-11-15T05:00:19;17.20;;;8.60;;
19219;SDS011;9744;49.364;7.484;2022-11-15T05:03:06;15.68;;;9.18;;
19219;SDS011;9744;49.364;7.484;2022-11-15T05:06:11;13.45;;;8.40;;
19219;SDS011;9744;49.364;7.484;2022-11-15T05:08:57;13.75;;;8.43;;
19219;SDS011;9744;49.364;7.484;2022-11-15T05:11:43;12.75;;;8.25;;
19219;SDS011;9744;49.364;7.484;2022-11-15T05:14:29;15.63;;;8.15;;
19219;SDS011;9744;49.364;7.484;2022-11-15T05:17:18;14.95;;;8.02;;
19219;SDS011;9744;49.364;7.484;2022-11-15T05:20:06;17.25;;;8.90;;
19219;SDS011;9744;49.364;7.484;2022-11-15T05:22:52;11.75;;;7.50;;
19219;SDS011;9744;49.364;7.484;2022-11-15T05:25:39;9.98;;;7.10;;
19219;SDS011;9744;49.364;7.484;2022-11-15T05:28:24;13.15;;;8.25;;
19219;SDS011;9744;49.364;7.484;2022-11-15T05:31:10;13.82;;;8.63;;
19219;SDS011;9744;49.364;7.484;2022-11-15T05:33:57;14.15;;;8.50;;
19219;SDS011;9744;49.364;7.484;2022-11-15T05:36:50;12.50;;;8.07;;
19219;SDS011;9744;49.364;7.484;2022-11-15T05:39:36;16.33;;;8.50;;
19219;SDS011;9744;49.364;7.484;2022-11-15T05:42:22;13.98;;;8.63;;
19219;SDS011;9744;49.364;7.484;2022-11-15T05:45:09;14.63;;;8.45;;
19219;SDS011;9744;49.364;7.484;2022-11-15T05:47:55;14.73;;;8.43;;
19219;SDS011;9744;49.364;7.484;2022-11-15T05:50:43;16.38;;;8.10;;
19219;SDS011;9744;49.364;7.484;2022-11-15T05:53:33;13.13;;;8.35;;
19219;SDS011;9744;49.364;7.484;2022-11-15T05:56:21;13.93;;;8.07;;
19219;SDS011;9744;49.364;7.484;2022-11-15T05:59:07;14.23;;;9.60;;
19219;SDS011;9744;49.364;7.484;2022-11-15T06:01:54;23.45;;;9.88;;
19219;SDS011;9744;49.364;7.484;2022-11-15T06:04:39;15.80;;;8.90;;
19219;SDS011;9744;49.364;7.484;2022-11-15T06:07:25;15.35;;;8.77;;
19219;SDS011;9744;49.364;7.484;2022-11-15T06:10:12;20.13;;;11.18;;
19219;SDS011;9744;49.364;7.484;2022-11-15T06:12:58;16.02;;;9.20;;
19219;SDS011;9744;49.364;7.484;2022-11-15T06:15:44;18.00;;;9.40;;
19219;SDS011;9744;49.364;7.484;2022-11-15T06:18:31;15.73;;;9.65;;
19219;SDS011;9744;49.364;7.484;2022-11-15T06:21:18;14.93;;;9.60;;
19219;SDS011;9744;49.364;7.484;2022-11-15T06:24:04;15.93;;;9.55;;
19219;SDS011;9744;49.364;7.484;2022-11-15T06:26:53;16.35;;;9.70;;
19219;SDS011;9744;49.364;7.484;2022-11-15T06:29:38;18.95;;;9.80;;
19219;SDS011;9744;49.364;7.484;2022-11-15T06:32:24;19.02;;;10.77;;
19219;SDS011;9744;49.364;7.484;2022-11-15T06:35:11;17.88;;;10.05;;
19219;SDS011;9744;49.364;7.484;2022-11-15T06:38:01;17.15;;;10.38;;
19219;SDS011;9744;49.364;7.484;2022-11-15T06:40:48;22.63;;;11.70;;
19219;SDS011;9744;49.364;7.484;2022-11-15T06:43:36;20.55;;;11.07;;
19219;SDS011;9744;49.364;7.484;2022-11-15T06:46:22;25.77;;;13.68;;
19219;SDS011;9744;49.364;7.484;2022-11-15T06:49:07;17.63;;;11.60;;
19219;SDS011;9744;49.364;7.484;2022-11-15T06:51:53;23.85;;;12.25;;
19219;SDS011;9744;49.364;7.484;2022-11-15T06:54:39;20.80;;;11.40;;
19219;SDS011;9744;49.364;7.484;2022-11-15T06:57:24;21.33;;;11.60;;
19219;SDS011;9744;49.364;7.484;2022-11-15T07:00:12;18.10;;;11.65;;
19219;SDS011;9744;49.364;7.484;2022-11-15T07:02:59;19.27;;;11.10;;
19219;SDS011;9744;49.364;7.484;2022-11-15T07:05:50;21.38;;;11.60;;
19219;SDS011;9744;49.364;7.484;2022-11-15T07:08:37;19.83;;;11.15;;
19219;SDS011;9744;49.364;7.484;2022-11-15T07:11:23;18.88;;;10.88;;
19219;SDS011;9744;49.364;7.484;2022-11-15T07:14:08;20.92;;;11.60;;
19219;SDS011;9744;49.364;7.484;2022-11-15T07:16:56;21.05;;;12.43;;
19219;SDS011;9744;49.364;7.484;2022-11-15T07:19:41;19.80;;;11.13;;
19219;SDS011;9744;49.364;7.484;2022-11-15T07:22:27;19.33;;;11.75;;
19219;SDS011;9744;49.364;7.484;2022-11-15T07:25:13;17.45;;;10.52;;
19219;SDS011;9744;49.364;7.484;2022-11-15T07:27:59;20.27;;;11.27;;
19219;SDS011;9744;49.364;7.484;2022-11-15T07:30:45;18.75;;;10.38;;
19219;SDS011;9744;49.364;7.484;2022-11-15T07:33:32;16.95;;;10.02;;
19219;SDS011;9744;49.364;7.484;2022-11-15T07:36:17;16.77;;;9.70;;
19219;SDS011;9744;49.364;7.484;2022-11-15T07:39:03;20.52;;;10.20;;
19219;SDS011;9744;49.364;7.484;2022-11-15T07:41:48;17.45;;;9.98;;
19219;SDS011;9744;49.364;7.484;2022-11-15T07:44:54;36.97;;;15.73;;
19219;SDS011;9744;49.364;7.484;2022-11-15T07:47:40;23.90;;;12.15;;
19219;SDS011;9744;49.364;7.484;2022-11-15T07:50:30;24.20;;;13.18;;
19219;SDS011;9744;49.364;7.484;2022-11-15T07:53:16;22.05;;;13.55;;
19219;SDS011;9744;49.364;7.484;2022-11-15T07:56:02;22.17;;;11.05;;
19219;SDS011;9744;49.364;7.484;2022-11-15T07:58:51;18.27;;;10.15;;
19219;SDS011;9744;49.364;7.484;2022-11-15T08:01:36;16.23;;;10.10;;
19219;SDS011;9744;49.364;7.484;2022-11-15T08:04:22;19.60;;;10.32;;
19219;SDS011;9744;49.364;7.484;2022-11-15T08:07:09;21.08;;;14.13;;
19219;SDS011;9744;49.364;7.484;2022-11-15T08:09:55;20.55;;;10.65;;
19219;SDS011;9744;49.364;7.484;2022-11-15T08:12:40;16.55;;;10.68;;
19219;SDS011;9744;49.364;7.484;2022-11-15T08:15:26;25.42;;;11.13;;
19219;SDS011;9744;49.364;7.484;2022-11-15T08:18:14;20.20;;;10.32;;
19219;SDS011;9744;49.364;7.484;2022-11-15T08:21:01;21.95;;;10.15;;
19219;SDS011;9744;49.364;7.484;2022-11-15T08:23:48;15.18;;;9.90;;
19219;SDS011;9744;49.364;7.484;2022-11-15T08:26:34;14.98;;;9.77;;
19219;SDS011;9744;49.364;7.484;2022-11-15T08:29:20;20.73;;;10.55;;
19219;SDS011;9744;49.364;7.484;2022-11-15T08:32:05;23.70;;;9.80;;
19219;SDS011;9744;49.364;7.484;2022-11-15T08:34:51;19.38;;;11.82;;
19219;SDS011;9744;49.364;7.484;2022-11-15T08:37:37;19.90;;;12.15;;
19219;SDS011;9744;49.364;7.484;2022-11-15T08:40:25;17.13;;;10.88;;
19219;SDS011;9744;49.364;7.484;2022-11-15T08:43:11;18.95;;;10.32;;
19219;SDS011;9744;49.364;7.484;2022-11-15T08:45:57;20.20;;;9.65;;
19219;SDS011;9744;49.364;7.484;2022-11-15T08:48:43;88.97;;;49.85;;
19219;SDS011;9744;49.364;7.484;2022-11-15T08:51:29;56.58;;;35.17;;
19219;SDS011;9744;49.364;7.484;2022-11-15T08:54:15;29.55;;;18.85;;
19219;SDS011;9744;49.364;7.484;2022-11-15T08:57:02;39.85;;;26.50;;
19219;SDS011;9744;49.364;7.484;2022-11-15T08:59:47;48.60;;;28.80;;
19219;SDS011;9744;49.364;7.484;2022-11-15T09:02:33;24.92;;;15.80;;
19219;SDS011;9744;49.364;7.484;2022-11-15T09:05:19;48.80;;;30.30;;
19219;SDS011;9744;49.364;7.484;2022-11-15T09:08:05;26.77;;;16.40;;
19219;SDS011;9744;49.364;7.484;2022-11-15T09:10:50;24.60;;;15.32;;
19219;SDS011;9744;49.364;7.484;2022-11-15T09:13:37;27.25;;;17.15;;
19219;SDS011;9744;49.364;7.484;2022-11-15T09:16:23;29.95;;;19.58;;
19219;SDS011;9744;49.364;7.484;2022-11-15T09:19:09;29.15;;;18.20;;
19219;SDS011;9744;49.364;7.484;2022-11-15T09:21:55;35.50;;;19.45;;
19219;SDS011;9744;49.364;7.484;2022-11-15T09:24:41;35.80;;;15.85;;
19219;SDS011;9744;49.364;7.484;2022-11-15T09:27:27;21.42;;;9.75;;
19219;SDS011;9744;49.364;7.484;2022-11-15T09:30:14;18.23;;;11.40;;
19219;SDS011;9744;49.364;7.484;2022-11-15T09:33:05;19.25;;;12.02;;
19219;SDS011;9744;49.364;7.484;2022-11-15T09:35:52;16.45;;;9.52;;
19219;SDS011;9744;49.364;7.484;2022-11-15T09:38:38;15.93;;;10.13;;
19219;SDS011;9744;49.364;7.484;2022-11-15T09:41:37;14.45;;;8.38;;
19219;SDS011;9744;49.364;7.484;2022-11-15T09:44:42;14.45;;;8.32;;
19219;SDS011;9744;49.364;7.484;2022-11-15T09:48:06;16.00;;;9.15;;
19219;SDS011;9744;49.364;7.484;2022-11-15T09:51:07;18.45;;;12.65;;
19219;SDS011;9744;49.364;7.484;2022-11-15T09:53:41;17.20;;;11.10;;
19219;SDS011;9744;49.364;7.484;2022-11-15T09:56:27;14.20;;;10.27;;
19219;SDS011;9744;49.364;7.484;2022-11-15T09:58:58;14.40;;;10.10;;
19219;SDS011;9744;49.364;7.484;2022-11-15T10:01:36;16.95;;;10.00;;
19219;SDS011;9744;49.364;7.484;2022-11-15T10:04:12;15.88;;;9.00;;
19219;SDS011;9744;49.364;7.484;2022-11-15T10:06:40;18.75;;;9.00;;
19219;SDS011;9744;49.364;7.484;2022-11-15T10:09:13;8.98;;;6.65;;
19219;SDS011;9744;49.364;7.484;2022-11-15T10:11:45;10.82;;;5.80;;
19219;SDS011;9744;49.364;7.484;2022-11-15T10:14:14;8.85;;;6.10;;
19219;SDS011;9744;49.364;7.484;2022-11-15T10:16:59;10.05;;;5.00;;
19219;SDS011;9744;49.364;7.484;2022-11-15T10:19:54;5.70;;;4.45;;
19219;SDS011;9744;49.364;7.484;2022-11-15T10:22:29;6.18;;;4.35;;
19219;SDS011;9744;49.364;7.484;2022-11-15T10:27:53;11.38;;;5.55;;
19219;SDS011;9744;49.364;7.484;2022-11-15T10:30:22;7.05;;;4.63;;
19219;SDS011;9744;49.364;7.484;2022-11-15T10:33:00;9.88;;;6.95;;
19219;SDS011;9744;49.364;7.484;2022-11-15T10:35:39;11.43;;;6.45;;
19219;SDS011;9744;49.364;7.484;2022-11-15T10:38:09;13.57;;;7.07;;
19219;SDS011;9744;49.364;7.484;2022-11-15T10:40:37;7.45;;;5.10;;
19219;SDS011;9744;49.364;7.484;2022-11-15T10:43:12;18.40;;;9.07;;
19219;SDS011;9744;49.364;7.484;2022-11-15T10:45:41;21.88;;;9.70;;
19219;SDS011;9744;49.364;7.484;2022-11-15T10:48:19;18.02;;;9.32;;
19219;SDS011;9744;49.364;7.484;2022-11-15T10:50:52;5.78;;;3.65;;
19219;SDS011;9744;49.364;7.484;2022-11-15T10:53:22;7.88;;;6.35;;
19219;SDS011;9744;49.364;7.484;2022-11-15T10:55:55;10.60;;;7.32;;
19219;SDS011;9744;49.364;7.484;2022-11-15T10:58:33;9.50;;;3.42;;
19219;SDS011;9744;49.364;7.484;2022-11-15T11:01:09;4.15;;;1.58;;
19219;SDS011;9744;49.364;7.484;2022-11-15T11:03:39;3.40;;;1.42;;
19219;SDS011;9744;49.364;7.484;2022-11-15T11:06:11;5.38;;;1.52;;
19219;SDS011;9744;49.364;7.484;2022-11-15T11:08:40;5.68;;;2.70;;
19219;SDS011;9744;49.364;7.484;2022-11-15T11:11:19;4.43;;;3.80;;
19219;SDS011;9744;49.364;7.484;2022-11-15T11:13:46;4.60;;;3.83;;
19219;SDS011;9744;49.364;7.484;2022-11-15T11:22:09;2.05;;;1.55;;
19219;SDS011;9744;49.364;7.484;2022-11-15T11:24:44;7.63;;;3.97;;
19219;SDS011;9744;49.364;7.484;2022-11-15T11:27:21;2.50;;;1.67;;
19219;SDS011;9744;49.364;7.484;2022-11-15T11:30:01;2.33;;;1.73;;
19219;SDS011;9744;49.364;7.484;2022-11-15T11:32:39;2.30;;;1.90;;
19219;SDS011;9744;49.364;7.484;2022-11-15T11:35:18;4.60;;;2.25;;
19219;SDS011;9744;49.364;7.484;2022-11-15T11:37:51;3.65;;;2.00;;
19219;SDS011;9744;49.364;7.484;2022-11-15T11:40:24;1.70;;;1.40;;
19219;SDS011;9744;49.364;7.484;2022-11-15T11:42:58;4.93;;;1.67;;
19219;SDS011;9744;49.364;7.484;2022-11-15T11:48:25;3.05;;;1.60;;
19219;SDS011;9744;49.364;7.484;2022-11-15T11:51:10;3.25;;;1.60;;
19219;SDS011;9744;49.364;7.484;2022-11-15T11:53:47;3.85;;;2.17;;
19219;SDS011;9744;49.364;7.484;2022-11-15T11:56:22;4.60;;;2.13;;
19219;SDS011;9744;49.364;7.484;2022-11-15T11:58:54;4.40;;;3.08;;
19219;SDS011;9744;49.364;7.484;2022-11-15T12:01:26;9.43;;;2.17;;
19219;SDS011;9744;49.364;7.484;2022-11-15T12:03:59;5.30;;;1.73;;
19219;SDS011;9744;49.364;7.484;2022-11-15T12:06:33;4.32;;;3.10;;
19219;SDS011;9744;49.364;7.484;2022-11-15T12:09:12;8.25;;;4.80;;
19219;SDS011;9744;49.364;7.484;2022-11-15T12:11:48;7.93;;;3.40;;
19219;SDS011;9744;49.364;7.484;2022-11-15T12:14:24;7.43;;;3.08;;
19219;SDS011;9744;49.364;7.484;2022-11-15T12:16:56;5.22;;;2.50;;
19219;SDS011;9744;49.364;7.484;2022-11-15T12:19:24;10.52;;;2.30;;
19219;SDS011;9744;49.364;7.484;2022-11-15T12:21:54;4.07;;;2.67;;
19219;SDS011;9744;49.364;7.484;2022-11-15T12:24:26;8.38;;;1.30;;
19219;SDS011;9744;49.364;7.484;2022-11-15T12:27:01;1.75;;;1.30;;
19219;SDS011;9744;49.364;7.484;2022-11-15T12:29:33;2.35;;;1.70;;
19219;SDS011;9744;49.364;7.484;2022-11-15T12:32:04;2.88;;;2.08;;
19219;SDS011;9744;49.364;7.484;2022-11-15T12:34:44;4.13;;;1.60;;
19219;SDS011;9744;49.364;7.484;2022-11-15T12:40:21;2.38;;;1.70;;
19219;SDS011;9744;49.364;7.484;2022-11-15T12:43:00;6.63;;;2.05;;
19219;SDS011;9744;49.364;7.484;2022-11-15T12:45:31;2.53;;;1.40;;
19219;SDS011;9744;49.364;7.484;2022-11-15T12:51:19;4.78;;;2.63;;
19219;SDS011;9744;49.364;7.484;2022-11-15T12:53:47;3.10;;;1.95;;
19219;SDS011;9744;49.364;7.484;2022-11-15T12:56:23;2.00;;;1.52;;
19219;SDS011;9744;49.364;7.484;2022-11-15T12:58:54;5.25;;;2.88;;
19219;SDS011;9744;49.364;7.484;2022-11-15T13:04:28;2.53;;;2.05;;
19219;SDS011;9744;49.364;7.484;2022-11-15T13:06:58;4.72;;;1.90;;
19219;SDS011;9744;49.364;7.484;2022-11-15T13:18:28;2.47;;;1.52;;
19219;SDS011;9744;49.364;7.484;2022-11-15T13:20:58;3.63;;;1.13;;
19219;SDS011;9744;49.364;7.484;2022-11-15T13:23:26;1.00;;;1.00;;
19219;SDS011;9744;49.364;7.484;2022-11-15T13:26:00;2.25;;;1.65;;
19219;SDS011;9744;49.364;7.484;2022-11-15T13:28:37;1.10;;;1.00;;
19219;SDS011;9744;49.364;7.484;2022-11-15T13:31:21;1.67;;;1.25;;
19219;SDS011;9744;49.364;7.484;2022-11-15T13:33:55;1.15;;;1.00;;
19219;SDS011;9744;49.364;7.484;2022-11-15T13:36:25;3.88;;;1.63;;
19219;SDS011;9744;49.364;7.484;2022-11-15T13:38:57;4.55;;;2.03;;
19219;SDS011;9744;49.364;7.484;2022-11-15T13:41:27;2.45;;;1.70;;
19219;SDS011;9744;49.364;7.484;2022-11-15T13:43:55;2.25;;;1.13;;
19219;SDS011;9744;49.364;7.484;2022-11-15T13:46:25;2.50;;;1.02;;
19219;SDS011;9744;49.364;7.484;2022-11-15T13:48:54;3.92;;;1.20;;
19219;SDS011;9744;49.364;7.484;2022-11-15T13:51:28;4.05;;;1.17;;
19219;SDS011;9744;49.364;7.484;2022-11-15T13:54:02;1.35;;;1.05;;
19219;SDS011;9744;49.364;7.484;2022-11-15T13:56:36;6.22;;;1.25;;
19219;SDS011;9744;49.364;7.484;2022-11-15T13:59:08;1.65;;;1.00;;
19219;SDS011;9744;49.364;7.484;2022-11-15T14:01:39;4.05;;;1.30;;
19219;SDS011;9744;49.364;7.484;2022-11-15T14:04:09;2.60;;;1.45;;
19219;SDS011;9744;49.364;7.484;2022-11-15T14:06:43;2.10;;;1.17;;
19219;SDS011;9744;49.364;7.484;2022-11-15T14:09:22;2.45;;;1.50;;
19219;SDS011;9744;49.364;7.484;2022-11-15T14:11:56;2.85;;;1.17;;
19219;SDS011;9744;49.364;7.484;2022-11-15T14:14:24;4.60;;;1.00;;
19219;SDS011;9744;49.364;7.484;2022-11-15T14:16:53;1.70;;;1.20;;
19219;SDS011;9744;49.364;7.484;2022-11-15T14:19:35;1.10;;;1.00;;
19219;SDS011;9744;49.364;7.484;2022-11-15T14:22:08;1.67;;;1.20;;
19219;SDS011;9744;49.364;7.484;2022-11-15T14:24:40;3.90;;;1.40;;
19219;SDS011;9744;49.364;7.484;2022-11-15T14:27:16;2.67;;;1.20;;
19219;SDS011;9744;49.364;7.484;2022-11-15T14:29:44;2.83;;;2.50;;
19219;SDS011;9744;49.364;7.484;2022-11-15T14:32:14;5.00;;;3.67;;
19219;SDS011;9744;49.364;7.484;2022-11-15T14:34:42;6.75;;;3.17;;
19219;SDS011;9744;49.364;7.484;2022-11-15T14:37:16;4.53;;;2.72;;
19219;SDS011;9744;49.364;7.484;2022-11-15T14:39:47;7.07;;;4.25;;
19219;SDS011;9744;49.364;7.484;2022-11-15T14:42:14;9.90;;;5.25;;
19219;SDS011;9744;49.364;7.484;2022-11-15T14:44:41;14.32;;;7.80;;
19219;SDS011;9744;49.364;7.484;2022-11-15T14:47:09;23.73;;;11.43;;
19219;SDS011;9744;49.364;7.484;2022-11-15T14:49:37;5.88;;;3.35;;
19219;SDS011;9744;49.364;7.484;2022-11-15T14:52:07;2.95;;;2.00;;
19219;SDS011;9744;49.364;7.484;2022-11-15T14:54:43;2.35;;;1.70;;
19219;SDS011;9744;49.364;7.484;2022-11-15T14:57:10;3.25;;;2.20;;
19219;SDS011;9744;49.364;7.484;2022-11-15T14:59:37;5.18;;;4.18;;
19219;SDS011;9744;49.364;7.484;2022-11-15T15:02:08;2.22;;;1.20;;
19219;SDS011;9744;49.364;7.484;2022-11-15T15:04:42;6.50;;;2.72;;
19219;SDS011;9744;49.364;7.484;2022-11-15T15:07:09;4.80;;;3.92;;
19219;SDS011;9744;49.364;7.484;2022-11-15T15:09:36;10.90;;;3.92;;
19219;SDS011;9744;49.364;7.484;2022-11-15T15:12:03;2.97;;;2.50;;
19219;SDS011;9744;49.364;7.484;2022-11-15T15:14:32;3.85;;;2.67;;
19219;SDS011;9744;49.364;7.484;2022-11-15T15:16:59;2.60;;;1.88;;
19219;SDS011;9744;49.364;7.484;2022-11-15T15:19:26;5.40;;;3.03;;
19219;SDS011;9744;49.364;7.484;2022-11-15T15:21:55;3.30;;;2.80;;
19219;SDS011;9744;49.364;7.484;2022-11-15T15:24:22;3.25;;;2.72;;
19219;SDS011;9744;49.364;7.484;2022-11-15T15:26:49;6.45;;;3.35;;
19219;SDS011;9744;49.364;7.484;2022-11-15T15:29:17;4.45;;;2.58;;
19219;SDS011;9744;49.364;7.484;2022-11-15T15:31:44;2.70;;;1.80;;
19219;SDS011;9744;49.364;7.484;2022-11-15T15:34:11;3.78;;;1.63;;
19219;SDS011;9744;49.364;7.484;2022-11-15T15:36:38;2.03;;;1.48;;
19219;SDS011;9744;49.364;7.484;2022-11-15T15:39:08;4.80;;;2.08;;
19219;SDS011;9744;49.364;7.484;2022-11-15T15:41:36;3.80;;;2.88;;
19219;SDS011;9744;49.364;7.484;2022-11-15T15:44:03;19.20;;;7.43;;
19219;SDS011;9744;49.364;7.484;2022-11-15T15:46:30;6.55;;;3.42;;
19219;SDS011;9744;49.364;7.484;2022-11-15T15:48:58;4.93;;;3.70;;
19219;SDS011;9744;49.364;7.484;2022-11-15T15:51:25;4.93;;;2.88;;
19219;SDS011;9744;49.364;7.484;2022-11-15T15:53:52;6.30;;;3.95;;
19219;SDS011;9744;49.364;7.484;2022-11-15T15:56:23;5.40;;;3.40;;
19219;SDS011;9744;49.364;7.484;2022-11-15T15:58:50;5.72;;;2.80;;
19219;SDS011;9744;49.364;7.484;2022-11-15T16:01:18;3.60;;;2.67;;
19219;SDS011;9744;49.364;7.484;2022-11-15T16:03:45;9.55;;;3.15;;
19219;SDS011;9744;49.364;7.484;2022-11-15T16:09:06;5.45;;;2.72;;
19219;SDS011;9744;49.364;7.484;2022-11-15T16:11:38;8.48;;;3.63;;
19219;SDS011;9744;49.364;7.484;2022-11-15T16:14:06;4.18;;;2.25;;
19219;SDS011;9744;49.364;7.484;2022-11-15T16:16:34;4.30;;;2.78;;
19219;SDS011;9744;49.364;7.484;2022-11-15T16:19:02;6.03;;;3.60;;
19219;SDS011;9744;49.364;7.484;2022-11-15T16:21:30;8.57;;;2.97;;
19219;SDS011;9744;49.364;7.484;2022-11-15T16:23:57;5.32;;;2.60;;
19219;SDS011;9744;49.364;7.484;2022-11-15T16:26:26;5.38;;;2.55;;
19219;SDS011;9744;49.364;7.484;2022-11-15T16:28:56;5.75;;;2.05;;
19219;SDS011;9744;49.364;7.484;2022-11-15T16:31:24;7.95;;;2.67;;
19219;SDS011;9744;49.364;7.484;2022-11-15T16:33:51;6.20;;;2.13;;
19219;SDS011;9744;49.364;7.484;2022-11-15T16:36:20;2.63;;;1.90;;
19219;SDS011;9744;49.364;7.484;2022-11-15T16:38:48;6.93;;;2.10;;
19219;SDS011;9744;49.364;7.484;2022-11-15T16:41:15;5.28;;;2.22;;
19219;SDS011;9744;49.364;7.484;2022-11-15T16:43:43;4.63;;;2.30;;
19219;SDS011;9744;49.364;7.484;2022-11-15T16:46:17;2.97;;;2.00;;
19219;SDS011;9744;49.364;7.484;2022-11-15T16:48:46;5.25;;;2.67;;
19219;SDS011;9744;49.364;7.484;2022-11-15T16:51:14;2.92;;;1.85;;